sensor_id;sensor_type;location;lat;lon;timestamp;pressure;altitude;pressure_sealevel;temperature;humidity
5053;BME280;2545;50.892;5.740;2024-02-23T00:01:04;56412.13;;;-142.21;82.42
5053;BME280;2545;50.892;5.740;2024-02-23T00:03:30;56419.97;;;-142.21;82.33
5053;BME280;2545;50.892;5.740;2024-02-23T00:05:55;56370.94;;;-142.21;81.66
5053;BME280;2545;50.892;5.740;2024-02-23T00:08:21;56433.69;;;-142.21;81.11
5053;BME280;2545;50.892;5.740;2024-02-23T00:10:46;56400.34;;;-142.21;81.87
5053;BME280;2545;50.892;5.740;2024-02-23T00:13:11;56378.78;;;-142.21;81.86
5053;BME280;2545;50.892;5.740;2024-02-23T00:15:37;56400.34;;;-142.21;81.19
5053;BME280;2545;50.892;5.740;2024-02-23T00:18:02;56378.78;;;-142.21;80.63
5053;BME280;2545;50.892;5.740;2024-02-23T00:20:30;56404.28;;;-142.21;80.70
5053;BME280;2545;50.892;5.740;2024-02-23T00:22:57;56412.13;;;-142.21;80.13
5053;BME280;2545;50.892;5.740;2024-02-23T00:25:22;56398.38;;;-142.21;80.08
5053;BME280;2545;50.892;5.740;2024-02-23T00:27:48;56418.00;;;-142.21;81.33
5053;BME280;2545;50.892;5.740;2024-02-23T00:30:14;56402.31;;;-142.21;82.70
5053;BME280;2545;50.892;5.740;2024-02-23T00:32:39;56404.28;;;-142.21;81.19
5053;BME280;2545;50.892;5.740;2024-02-23T00:35:05;56419.97;;;-142.21;81.33
5053;BME280;2545;50.892;5.740;2024-02-23T00:37:30;56386.63;;;-142.21;81.05
5053;BME280;2545;50.892;5.740;2024-02-23T00:40:04;56406.22;;;-142.21;82.35
5053;BME280;2545;50.892;5.740;2024-02-23T00:42:30;56361.13;;;-142.21;82.23
5053;BME280;2545;50.892;5.740;2024-02-23T00:44:56;56400.34;;;-142.21;83.18
5053;BME280;2545;50.892;5.740;2024-02-23T00:47:22;56378.78;;;-142.21;83.82
5053;BME280;2545;50.892;5.740;2024-02-23T00:49:48;56378.78;;;-142.21;83.08
5053;BME280;2545;50.892;5.740;2024-02-23T00:52:14;56433.69;;;-142.21;83.65
5053;BME280;2545;50.892;5.740;2024-02-23T00:54:39;56378.78;;;-142.21;83.52
5053;BME280;2545;50.892;5.740;2024-02-23T00:57:06;56406.22;;;-142.21;83.41
5053;BME280;2545;50.892;5.740;2024-02-23T00:59:32;56439.56;;;-142.21;83.74
5053;BME280;2545;50.892;5.740;2024-02-23T01:01:58;56412.13;;;-142.21;83.93
5053;BME280;2545;50.892;5.740;2024-02-23T01:04:23;56406.22;;;-142.21;83.92
5053;BME280;2545;50.892;5.740;2024-02-23T01:06:49;56402.31;;;-142.21;84.12
5053;BME280;2545;50.892;5.740;2024-02-23T01:09:14;56390.53;;;-142.21;83.86
5053;BME280;2545;50.892;5.740;2024-02-23T01:11:43;56439.56;;;-142.21;83.47
5053;BME280;2545;50.892;5.740;2024-02-23T01:14:09;56390.53;;;-142.21;83.32
5053;BME280;2545;50.892;5.740;2024-02-23T01:16:35;56437.59;;;-142.21;83.89
5053;BME280;2545;50.892;5.740;2024-02-23T01:19:00;56431.72;;;-142.21;83.49
5053;BME280;2545;50.892;5.740;2024-02-23T01:21:28;56419.97;;;-142.21;82.33
5053;BME280;2545;50.892;5.740;2024-02-23T01:23:53;56414.06;;;-142.21;83.35
5053;BME280;2545;50.892;5.740;2024-02-23T01:26:19;56427.81;;;-142.21;83.72
5053;BME280;2545;50.892;5.740;2024-02-23T01:28:45;56406.22;;;-142.21;83.39
5053;BME280;2545;50.892;5.740;2024-02-23T01:31:11;56410.16;;;-142.21;83.21
5053;BME280;2545;50.892;5.740;2024-02-23T01:33:37;56390.53;;;-142.21;84.47
5053;BME280;2545;50.892;5.740;2024-02-23T01:36:07;56419.97;;;-142.21;83.27
5053;BME280;2545;50.892;5.740;2024-02-23T01:38:33;56404.28;;;-142.21;83.59
5053;BME280;2545;50.892;5.740;2024-02-23T01:40:59;56402.31;;;-142.21;83.38
5053;BME280;2545;50.892;5.740;2024-02-23T01:43:25;56441.53;;;-142.21;82.95
5053;BME280;2545;50.892;5.740;2024-02-23T01:45:51;56418.00;;;-142.21;82.16
5053;BME280;2545;50.892;5.740;2024-02-23T01:48:16;56402.31;;;-142.21;82.01
5053;BME280;2545;50.892;5.740;2024-02-23T01:50:44;56439.56;;;-142.21;82.33
5053;BME280;2545;50.892;5.740;2024-02-23T01:53:12;56398.38;;;-142.21;81.59
5053;BME280;2545;50.892;5.740;2024-02-23T01:55:41;56406.22;;;-142.21;81.58
5053;BME280;2545;50.892;5.740;2024-02-23T01:58:08;56392.50;;;-142.21;81.76
5053;BME280;2545;50.892;5.740;2024-02-23T02:00:34;56433.69;;;-142.21;80.88
5053;BME280;2545;50.892;5.740;2024-02-23T02:03:00;56386.63;;;-142.21;81.49
5053;BME280;2545;50.892;5.740;2024-02-23T02:05:25;56398.38;;;-142.21;80.14
5053;BME280;2545;50.892;5.740;2024-02-23T02:07:53;56414.06;;;-142.21;81.83
5053;BME280;2545;50.892;5.740;2024-02-23T02:10:23;56408.19;;;-142.21;81.15
5053;BME280;2545;50.892;5.740;2024-02-23T02:12:49;56404.28;;;-142.21;80.55
5053;BME280;2545;50.892;5.740;2024-02-23T02:15:14;56390.53;;;-142.21;79.98
5053;BME280;2545;50.892;5.740;2024-02-23T02:17:42;56382.69;;;-142.21;80.51
5053;BME280;2545;50.892;5.740;2024-02-23T02:20:12;56418.00;;;-142.21;80.16
5053;BME280;2545;50.892;5.740;2024-02-23T02:22:38;56388.59;;;-142.21;80.29
5053;BME280;2545;50.892;5.740;2024-02-23T02:25:05;56404.28;;;-142.21;79.43
5053;BME280;2545;50.892;5.740;2024-02-23T02:27:30;56402.31;;;-142.21;79.73
5053;BME280;2545;50.892;5.740;2024-02-23T02:29:56;56404.28;;;-142.21;79.50
5053;BME280;2545;50.892;5.740;2024-02-23T02:32:22;56374.84;;;-142.21;80.32
5053;BME280;2545;50.892;5.740;2024-02-23T02:34:47;56382.69;;;-142.21;81.07
5053;BME280;2545;50.892;5.740;2024-02-23T02:37:13;56400.34;;;-142.21;79.80
5053;BME280;2545;50.892;5.740;2024-02-23T02:39:38;56419.97;;;-142.21;79.50
5053;BME280;2545;50.892;5.740;2024-02-23T02:42:04;56406.22;;;-142.21;78.30
5053;BME280;2545;50.892;5.740;2024-02-23T02:44:29;56412.13;;;-142.21;78.48
5053;BME280;2545;50.892;5.740;2024-02-23T02:46:56;56427.81;;;-142.21;78.96
5053;BME280;2545;50.892;5.740;2024-02-23T02:49:22;56400.34;;;-142.21;80.60
5053;BME280;2545;50.892;5.740;2024-02-23T02:51:47;56398.38;;;-142.21;80.69
5053;BME280;2545;50.892;5.740;2024-02-23T02:54:12;56414.06;;;-142.21;79.84
5053;BME280;2545;50.892;5.740;2024-02-23T02:56:42;56418.00;;;-142.21;79.08
5053;BME280;2545;50.892;5.740;2024-02-23T02:59:08;56435.66;;;-142.21;79.37
5053;BME280;2545;50.892;5.740;2024-02-23T03:01:33;56414.06;;;-142.21;80.30
5053;BME280;2545;50.892;5.740;2024-02-23T03:03:59;56382.69;;;-142.21;80.77
5053;BME280;2545;50.892;5.740;2024-02-23T03:06:24;56404.28;;;-142.21;79.72
5053;BME280;2545;50.892;5.740;2024-02-23T03:08:49;56423.88;;;-142.21;81.72
5053;BME280;2545;50.892;5.740;2024-02-23T03:11:15;56431.72;;;-142.21;79.98
5053;BME280;2545;50.892;5.740;2024-02-23T03:13:40;56368.97;;;-142.21;80.24
5053;BME280;2545;50.892;5.740;2024-02-23T03:16:05;56390.53;;;-142.21;79.70
5053;BME280;2545;50.892;5.740;2024-02-23T03:18:32;56421.91;;;-142.21;78.74
5053;BME280;2545;50.892;5.740;2024-02-23T03:20:57;56433.69;;;-142.21;78.33
5053;BME280;2545;50.892;5.740;2024-02-23T03:23:22;56368.97;;;-142.21;78.39
5053;BME280;2545;50.892;5.740;2024-02-23T03:25:48;56380.75;;;-142.21;78.17
5053;BME280;2545;50.892;5.740;2024-02-23T03:28:13;56394.47;;;-142.21;77.60
5053;BME280;2545;50.892;5.740;2024-02-23T03:30:39;56406.22;;;-142.21;78.33
5053;BME280;2545;50.892;5.740;2024-02-23T03:33:04;56419.97;;;-142.21;78.06
5053;BME280;2545;50.892;5.740;2024-02-23T03:35:30;56390.53;;;-142.21;79.13
5053;BME280;2545;50.892;5.740;2024-02-23T03:37:55;56427.81;;;-142.21;78.49
5053;BME280;2545;50.892;5.740;2024-02-23T03:40:21;56408.19;;;-142.21;79.25
5053;BME280;2545;50.892;5.740;2024-02-23T03:42:46;56396.44;;;-142.21;78.88
5053;BME280;2545;50.892;5.740;2024-02-23T03:45:13;56429.75;;;-142.21;79.24
5053;BME280;2545;50.892;5.740;2024-02-23T03:47:38;56400.34;;;-142.21;78.72
5053;BME280;2545;50.892;5.740;2024-02-23T03:50:05;56414.06;;;-142.21;78.03
5053;BME280;2545;50.892;5.740;2024-02-23T03:52:31;56423.88;;;-142.21;79.75
5053;BME280;2545;50.892;5.740;2024-02-23T03:54:56;56396.44;;;-142.21;78.02
5053;BME280;2545;50.892;5.740;2024-02-23T03:57:21;56408.19;;;-142.21;80.00
5053;BME280;2545;50.892;5.740;2024-02-23T03:59:53;56374.84;;;-142.21;78.22
5053;BME280;2545;50.892;5.740;2024-02-23T04:02:19;56394.47;;;-142.21;77.67
5053;BME280;2545;50.892;5.740;2024-02-23T04:04:44;56418.00;;;-142.21;77.61
5053;BME280;2545;50.892;5.740;2024-02-23T04:07:10;56443.50;;;-142.21;77.01
5053;BME280;2545;50.892;5.740;2024-02-23T04:09:35;56419.97;;;-142.21;79.58
5053;BME280;2545;50.892;5.740;2024-02-23T04:12:00;56410.16;;;-142.21;78.63
5053;BME280;2545;50.892;5.740;2024-02-23T04:14:26;56418.00;;;-142.21;77.78
5053;BME280;2545;50.892;5.740;2024-02-23T04:16:51;56412.13;;;-142.21;77.95
5053;BME280;2545;50.892;5.740;2024-02-23T04:19:16;56419.97;;;-142.21;77.05
5053;BME280;2545;50.892;5.740;2024-02-23T04:21:44;56380.75;;;-142.21;76.92
5053;BME280;2545;50.892;5.740;2024-02-23T04:24:09;56404.28;;;-142.21;75.87
5053;BME280;2545;50.892;5.740;2024-02-23T04:26:36;56406.22;;;-142.21;76.75
5053;BME280;2545;50.892;5.740;2024-02-23T04:29:01;56410.16;;;-142.21;77.74
5053;BME280;2545;50.892;5.740;2024-02-23T04:31:27;56435.66;;;-142.21;76.91
5053;BME280;2545;50.892;5.740;2024-02-23T04:33:52;56423.88;;;-142.21;76.94
5053;BME280;2545;50.892;5.740;2024-02-23T04:36:21;56351.31;;;-142.21;75.12
5053;BME280;2545;50.892;5.740;2024-02-23T04:38:46;56400.34;;;-142.21;75.07
5053;BME280;2545;50.892;5.740;2024-02-23T04:41:11;56388.59;;;-142.21;76.88
5053;BME280;2545;50.892;5.740;2024-02-23T04:43:38;56392.50;;;-142.21;75.88
5053;BME280;2545;50.892;5.740;2024-02-23T04:46:03;56414.06;;;-142.21;75.73
5053;BME280;2545;50.892;5.740;2024-02-23T04:48:28;56378.78;;;-142.21;77.40
5053;BME280;2545;50.892;5.740;2024-02-23T04:50:56;56404.28;;;-142.21;76.06
5053;BME280;2545;50.892;5.740;2024-02-23T04:53:21;56378.78;;;-142.21;76.25
5053;BME280;2545;50.892;5.740;2024-02-23T04:55:47;56414.06;;;-142.21;75.87
5053;BME280;2545;50.892;5.740;2024-02-23T04:58:12;56421.91;;;-142.21;76.10
5053;BME280;2545;50.892;5.740;2024-02-23T05:00:38;56414.06;;;-142.21;75.96
5053;BME280;2545;50.892;5.740;2024-02-23T05:03:05;56396.44;;;-142.21;77.33
5053;BME280;2545;50.892;5.740;2024-02-23T05:05:31;56402.31;;;-142.21;75.83
5053;BME280;2545;50.892;5.740;2024-02-23T05:07:56;56416.03;;;-142.21;75.56
5053;BME280;2545;50.892;5.740;2024-02-23T05:10:22;56396.44;;;-142.21;75.67
5053;BME280;2545;50.892;5.740;2024-02-23T05:12:48;56370.94;;;-142.21;75.30
5053;BME280;2545;50.892;5.740;2024-02-23T05:15:15;56402.31;;;-142.21;75.55
5053;BME280;2545;50.892;5.740;2024-02-23T05:17:41;56400.34;;;-142.21;74.61
5053;BME280;2545;50.892;5.740;2024-02-23T05:20:07;56419.97;;;-142.21;74.61
5053;BME280;2545;50.892;5.740;2024-02-23T05:22:33;56418.00;;;-142.21;73.80
5053;BME280;2545;50.892;5.740;2024-02-23T05:24:58;56404.28;;;-142.21;73.49
5053;BME280;2545;50.892;5.740;2024-02-23T05:27:24;56390.53;;;-142.21;73.63
5053;BME280;2545;50.892;5.740;2024-02-23T05:29:49;56414.06;;;-142.21;74.29
5053;BME280;2545;50.892;5.740;2024-02-23T05:32:14;56382.69;;;-142.21;74.41
5053;BME280;2545;50.892;5.740;2024-02-23T05:34:39;56418.00;;;-142.21;74.01
5053;BME280;2545;50.892;5.740;2024-02-23T05:37:05;56396.44;;;-142.21;75.82
5053;BME280;2545;50.892;5.740;2024-02-23T05:39:31;56402.31;;;-142.21;76.30
5053;BME280;2545;50.892;5.740;2024-02-23T05:41:56;56404.28;;;-142.21;75.36
5053;BME280;2545;50.892;5.740;2024-02-23T05:44:24;56406.22;;;-142.21;75.89
5053;BME280;2545;50.892;5.740;2024-02-23T05:46:49;56392.50;;;-142.21;76.76
5053;BME280;2545;50.892;5.740;2024-02-23T05:49:14;56421.91;;;-142.21;76.24
5053;BME280;2545;50.892;5.740;2024-02-23T05:51:41;56394.47;;;-142.21;76.47
5053;BME280;2545;50.892;5.740;2024-02-23T05:54:07;56433.69;;;-142.21;76.42
5053;BME280;2545;50.892;5.740;2024-02-23T05:56:33;56419.97;;;-142.21;76.25
5053;BME280;2545;50.892;5.740;2024-02-23T05:58:58;56414.06;;;-142.21;76.66
5053;BME280;2545;50.892;5.740;2024-02-23T06:01:24;56406.22;;;-142.21;76.36
5053;BME280;2545;50.892;5.740;2024-02-23T06:03:50;56380.75;;;-142.21;75.05
5053;BME280;2545;50.892;5.740;2024-02-23T06:06:15;56392.50;;;-142.21;76.32
5053;BME280;2545;50.892;5.740;2024-02-23T06:08:40;56400.34;;;-142.21;74.71
5053;BME280;2545;50.892;5.740;2024-02-23T06:11:06;56396.44;;;-142.21;74.24
5053;BME280;2545;50.892;5.740;2024-02-23T06:13:32;56398.38;;;-142.21;73.70
5053;BME280;2545;50.892;5.740;2024-02-23T06:15:57;56400.34;;;-142.21;73.47
5053;BME280;2545;50.892;5.740;2024-02-23T06:18:22;56402.31;;;-142.21;73.96
5053;BME280;2545;50.892;5.740;2024-02-23T06:20:49;56392.50;;;-142.21;75.92
5053;BME280;2545;50.892;5.740;2024-02-23T06:23:16;56435.66;;;-142.21;74.27
5053;BME280;2545;50.892;5.740;2024-02-23T06:25:41;56398.38;;;-142.21;73.63
5053;BME280;2545;50.892;5.740;2024-02-23T06:28:07;56386.63;;;-142.21;74.32
5053;BME280;2545;50.892;5.740;2024-02-23T06:30:32;56378.78;;;-142.21;74.76
5053;BME280;2545;50.892;5.740;2024-02-23T06:32:57;56408.19;;;-142.21;75.99
5053;BME280;2545;50.892;5.740;2024-02-23T06:35:24;56429.75;;;-142.21;74.41
5053;BME280;2545;50.892;5.740;2024-02-23T06:37:49;56404.28;;;-142.21;75.62
5053;BME280;2545;50.892;5.740;2024-02-23T06:40:15;56394.47;;;-142.21;76.16
5053;BME280;2545;50.892;5.740;2024-02-23T06:42:40;56376.81;;;-142.21;76.81
5053;BME280;2545;50.892;5.740;2024-02-23T06:45:07;56406.22;;;-142.21;77.24
5053;BME280;2545;50.892;5.740;2024-02-23T06:47:33;56410.16;;;-142.21;76.85
5053;BME280;2545;50.892;5.740;2024-02-23T06:49:58;56361.13;;;-142.21;78.32
5053;BME280;2545;50.892;5.740;2024-02-23T06:52:24;56414.06;;;-142.21;77.65
5053;BME280;2545;50.892;5.740;2024-02-23T06:54:51;56447.41;;;-142.21;77.49
5053;BME280;2545;50.892;5.740;2024-02-23T06:57:16;56376.81;;;-142.21;77.48
5053;BME280;2545;50.892;5.740;2024-02-23T06:59:42;56398.38;;;-142.21;78.88
5053;BME280;2545;50.892;5.740;2024-02-23T07:02:08;56429.75;;;-142.21;79.09
5053;BME280;2545;50.892;5.740;2024-02-23T07:04:33;56433.69;;;-142.21;79.80
5053;BME280;2545;50.892;5.740;2024-02-23T07:07:00;56398.38;;;-142.21;80.44
5053;BME280;2545;50.892;5.740;2024-02-23T07:09:31;56404.28;;;-142.21;80.33
5053;BME280;2545;50.892;5.740;2024-02-23T07:11:58;56431.72;;;-142.21;79.98
5053;BME280;2545;50.892;5.740;2024-02-23T07:14:23;56427.81;;;-142.21;80.14
5053;BME280;2545;50.892;5.740;2024-02-23T07:16:51;56429.75;;;-142.21;80.70
5053;BME280;2545;50.892;5.740;2024-02-23T07:19:17;56394.47;;;-142.21;79.36
5053;BME280;2545;50.892;5.740;2024-02-23T07:21:42;56394.47;;;-142.21;78.93
5053;BME280;2545;50.892;5.740;2024-02-23T07:24:08;56465.06;;;-142.21;79.00
5053;BME280;2545;50.892;5.740;2024-02-23T07:26:34;56378.78;;;-142.21;78.82
5053;BME280;2545;50.892;5.740;2024-02-23T07:29:00;56414.06;;;-142.21;79.65
5053;BME280;2545;50.892;5.740;2024-02-23T07:31:26;56357.22;;;-142.21;79.52
5053;BME280;2545;50.892;5.740;2024-02-23T07:33:51;56425.84;;;-142.21;79.36
5053;BME280;2545;50.892;5.740;2024-02-23T07:36:17;56402.31;;;-142.21;80.37
5053;BME280;2545;50.892;5.740;2024-02-23T07:38:43;56402.31;;;-142.21;80.07
5053;BME280;2545;50.892;5.740;2024-02-23T07:41:10;56423.88;;;-142.21;79.00
5053;BME280;2545;50.892;5.740;2024-02-23T07:43:35;56416.03;;;-142.21;80.05
5053;BME280;2545;50.892;5.740;2024-02-23T07:46:01;56408.19;;;-142.21;80.16
5053;BME280;2545;50.892;5.740;2024-02-23T07:48:29;56425.84;;;-142.21;80.58
5053;BME280;2545;50.892;5.740;2024-02-23T07:50:54;56406.22;;;-142.21;79.44
5053;BME280;2545;50.892;5.740;2024-02-23T07:53:19;56396.44;;;-142.21;79.77
5053;BME280;2545;50.892;5.740;2024-02-23T07:55:45;56386.63;;;-142.21;79.17
5053;BME280;2545;50.892;5.740;2024-02-23T07:58:10;56349.38;;;-142.21;79.14
5053;BME280;2545;50.892;5.740;2024-02-23T08:00:35;56414.06;;;-142.21;80.12
5053;BME280;2545;50.892;5.740;2024-02-23T08:03:03;56425.84;;;-142.21;77.99
5053;BME280;2545;50.892;5.740;2024-02-23T08:05:29;56363.09;;;-142.21;77.92
5053;BME280;2545;50.892;5.740;2024-02-23T08:07:54;56400.34;;;-142.21;77.58
5053;BME280;2545;50.892;5.740;2024-02-23T08:10:19;56410.16;;;-142.21;77.65
5053;BME280;2545;50.892;5.740;2024-02-23T08:12:46;56382.69;;;-142.21;76.55
5053;BME280;2545;50.892;5.740;2024-02-23T08:15:12;56390.53;;;-142.21;76.76
5053;BME280;2545;50.892;5.740;2024-02-23T08:17:37;56423.88;;;-142.21;78.77
5053;BME280;2545;50.892;5.740;2024-02-23T08:20:02;56361.13;;;-142.21;77.34
5053;BME280;2545;50.892;5.740;2024-02-23T08:22:29;56410.16;;;-142.21;76.74
5053;BME280;2545;50.892;5.740;2024-02-23T08:24:54;56378.78;;;-142.21;77.13
5053;BME280;2545;50.892;5.740;2024-02-23T08:27:21;56423.88;;;-142.21;75.57
5053;BME280;2545;50.892;5.740;2024-02-23T08:29:46;56408.19;;;-142.21;75.53
5053;BME280;2545;50.892;5.740;2024-02-23T08:32:12;56378.78;;;-142.21;75.64
5053;BME280;2545;50.892;5.740;2024-02-23T08:34:38;56392.50;;;-142.21;74.82
5053;BME280;2545;50.892;5.740;2024-02-23T08:37:03;56408.19;;;-142.21;74.41
5053;BME280;2545;50.892;5.740;2024-02-23T08:39:30;56390.53;;;-142.21;74.24
5053;BME280;2545;50.892;5.740;2024-02-23T08:41:55;56433.69;;;-142.21;76.42
5053;BME280;2545;50.892;5.740;2024-02-23T08:44:21;56388.59;;;-142.21;75.07
5053;BME280;2545;50.892;5.740;2024-02-23T08:46:47;56412.13;;;-142.21;73.35
5053;BME280;2545;50.892;5.740;2024-02-23T08:49:14;56392.50;;;-142.21;73.74
5053;BME280;2545;50.892;5.740;2024-02-23T08:51:41;56370.94;;;-142.21;73.01
5053;BME280;2545;50.892;5.740;2024-02-23T08:54:09;56402.31;;;-142.21;73.54
5053;BME280;2545;50.892;5.740;2024-02-23T08:56:38;56388.59;;;-142.21;72.79
5053;BME280;2545;50.892;5.740;2024-02-23T08:59:08;56382.69;;;-142.21;72.93
5053;BME280;2545;50.892;5.740;2024-02-23T09:01:34;56398.38;;;-142.21;70.39
5053;BME280;2545;50.892;5.740;2024-02-23T09:03:59;56388.59;;;-142.21;72.36
5053;BME280;2545;50.892;5.740;2024-02-23T09:06:25;56421.91;;;-142.21;71.05
5053;BME280;2545;50.892;5.740;2024-02-23T09:08:51;56400.34;;;-142.21;71.04
5053;BME280;2545;50.892;5.740;2024-02-23T09:11:16;56392.50;;;-142.21;71.94
5053;BME280;2545;50.892;5.740;2024-02-23T09:13:42;56367.00;;;-142.21;70.04
5053;BME280;2545;50.892;5.740;2024-02-23T09:16:07;56418.00;;;-142.21;70.99
5053;BME280;2545;50.892;5.740;2024-02-23T09:18:34;56414.06;;;-142.21;70.80
5053;BME280;2545;50.892;5.740;2024-02-23T09:20:59;56419.97;;;-142.21;70.35
5053;BME280;2545;50.892;5.740;2024-02-23T09:23:25;56394.47;;;-142.21;72.17
5053;BME280;2545;50.892;5.740;2024-02-23T09:25:51;56386.63;;;-142.21;71.37
5053;BME280;2545;50.892;5.740;2024-02-23T09:28:16;56392.50;;;-142.21;71.25
5053;BME280;2545;50.892;5.740;2024-02-23T09:30:42;56396.44;;;-142.21;72.79
5053;BME280;2545;50.892;5.740;2024-02-23T09:33:07;56372.91;;;-142.21;69.82
5053;BME280;2545;50.892;5.740;2024-02-23T09:35:33;56335.63;;;-142.21;69.18
5053;BME280;2545;50.892;5.740;2024-02-23T09:37:58;56396.44;;;-142.21;70.89
5053;BME280;2545;50.892;5.740;2024-02-23T09:40:24;56382.69;;;-142.21;70.38
5053;BME280;2545;50.892;5.740;2024-02-23T09:42:55;56410.16;;;-142.21;69.54
5053;BME280;2545;50.892;5.740;2024-02-23T09:45:23;56384.66;;;-142.21;69.33
5053;BME280;2545;50.892;5.740;2024-02-23T09:47:49;56386.63;;;-142.21;68.64
5053;BME280;2545;50.892;5.740;2024-02-23T09:50:15;56416.03;;;-142.21;71.15
5053;BME280;2545;50.892;5.740;2024-02-23T09:52:42;56392.50;;;-142.21;70.80
5053;BME280;2545;50.892;5.740;2024-02-23T09:55:08;56402.31;;;-142.21;67.41
5053;BME280;2545;50.892;5.740;2024-02-23T09:57:33;56419.97;;;-142.21;67.26
5053;BME280;2545;50.892;5.740;2024-02-23T09:59:59;56370.94;;;-142.21;68.64
5053;BME280;2545;50.892;5.740;2024-02-23T10:02:25;56402.31;;;-142.21;69.11
5053;BME280;2545;50.892;5.740;2024-02-23T10:04:51;56392.50;;;-142.21;69.47
5053;BME280;2545;50.892;5.740;2024-02-23T10:07:16;56394.47;;;-142.21;68.14
5053;BME280;2545;50.892;5.740;2024-02-23T10:09:42;56370.94;;;-142.21;67.06
5053;BME280;2545;50.892;5.740;2024-02-23T10:12:08;56382.69;;;-142.21;66.69
5053;BME280;2545;50.892;5.740;2024-02-23T10:14:33;56412.13;;;-142.21;67.19
5053;BME280;2545;50.892;5.740;2024-02-23T10:16:58;56408.19;;;-142.21;66.31
5053;BME280;2545;50.892;5.740;2024-02-23T10:19:24;56408.19;;;-142.21;66.75
5053;BME280;2545;50.892;5.740;2024-02-23T10:21:54;56386.63;;;-142.21;67.71
5053;BME280;2545;50.892;5.740;2024-02-23T10:24:20;56412.13;;;-142.21;66.95
5053;BME280;2545;50.892;5.740;2024-02-23T10:26:46;56372.91;;;-142.21;67.83
5053;BME280;2545;50.892;5.740;2024-02-23T10:29:12;56372.91;;;-142.21;68.24
5053;BME280;2545;50.892;5.740;2024-02-23T10:31:37;56418.00;;;-142.21;66.08
5053;BME280;2545;50.892;5.740;2024-02-23T10:34:09;56414.06;;;-142.21;67.96
5053;BME280;2545;50.892;5.740;2024-02-23T10:36:42;56386.63;;;-142.21;68.63
5053;BME280;2545;50.892;5.740;2024-02-23T10:39:08;56394.47;;;-142.21;66.68
5053;BME280;2545;50.892;5.740;2024-02-23T10:41:39;56374.84;;;-142.21;67.57
5053;BME280;2545;50.892;5.740;2024-02-23T10:44:07;56367.00;;;-142.21;68.33
5053;BME280;2545;50.892;5.740;2024-02-23T10:46:34;56412.13;;;-142.21;66.66
5053;BME280;2545;50.892;5.740;2024-02-23T10:49:01;56410.16;;;-142.21;66.72
5053;BME280;2545;50.892;5.740;2024-02-23T10:51:27;56390.53;;;-142.21;66.13
5053;BME280;2545;50.892;5.740;2024-02-23T10:53:53;56357.22;;;-142.21;67.61
5053;BME280;2545;50.892;5.740;2024-02-23T10:56:19;56419.97;;;-142.21;67.85
5053;BME280;2545;50.892;5.740;2024-02-23T10:58:47;56382.69;;;-142.21;67.68
5053;BME280;2545;50.892;5.740;2024-02-23T11:01:14;56408.19;;;-142.21;67.99
5053;BME280;2545;50.892;5.740;2024-02-23T11:03:41;56367.00;;;-142.21;68.15
5053;BME280;2545;50.892;5.740;2024-02-23T11:06:08;56394.47;;;-142.21;66.16
5053;BME280;2545;50.892;5.740;2024-02-23T11:08:34;56378.78;;;-142.21;66.23
5053;BME280;2545;50.892;5.740;2024-02-23T11:11:09;56400.34;;;-142.21;67.39
5053;BME280;2545;50.892;5.740;2024-02-23T11:13:38;56357.22;;;-142.21;67.65
5053;BME280;2545;50.892;5.740;2024-02-23T11:16:04;56353.28;;;-142.21;66.46
5053;BME280;2545;50.892;5.740;2024-02-23T11:18:31;56410.16;;;-142.21;66.41
5053;BME280;2545;50.892;5.740;2024-02-23T11:21:02;56394.47;;;-142.21;67.82
5053;BME280;2545;50.892;5.740;2024-02-23T11:23:44;56345.44;;;-142.21;66.40
5053;BME280;2545;50.892;5.740;2024-02-23T11:26:11;56357.22;;;-142.21;66.85
5053;BME280;2545;50.892;5.740;2024-02-23T11:31:14;56384.66;;;-142.21;66.67
5053;BME280;2545;50.892;5.740;2024-02-23T11:33:40;56380.75;;;-142.21;66.61
5053;BME280;2545;50.892;5.740;2024-02-23T11:36:08;56380.75;;;-142.21;66.89
5053;BME280;2545;50.892;5.740;2024-02-23T11:38:34;56382.69;;;-142.21;65.71
5053;BME280;2545;50.892;5.740;2024-02-23T11:41:01;56425.84;;;-142.21;66.14
5053;BME280;2545;50.892;5.740;2024-02-23T11:43:27;56367.00;;;-142.21;65.87
5053;BME280;2545;50.892;5.740;2024-02-23T11:45:53;56394.47;;;-142.21;61.07
5053;BME280;2545;50.892;5.740;2024-02-23T11:48:21;56392.50;;;-142.21;61.61
5053;BME280;2545;50.892;5.740;2024-02-23T11:50:50;56353.28;;;-142.21;62.89
5053;BME280;2545;50.892;5.740;2024-02-23T11:53:16;56382.69;;;-142.21;61.99
5053;BME280;2545;50.892;5.740;2024-02-23T11:55:42;56363.09;;;-142.21;61.99
5053;BME280;2545;50.892;5.740;2024-02-23T11:58:08;56347.41;;;-142.21;59.29
5053;BME280;2545;50.892;5.740;2024-02-23T12:00:34;56349.38;;;-142.21;57.39
5053;BME280;2545;50.892;5.740;2024-02-23T12:03:02;56339.56;;;-142.21;57.42
5053;BME280;2545;50.892;5.740;2024-02-23T12:05:27;56388.59;;;-142.21;58.91
5053;BME280;2545;50.892;5.740;2024-02-23T12:07:54;56384.66;;;-142.21;59.93
5053;BME280;2545;50.892;5.740;2024-02-23T12:10:19;56394.47;;;-142.21;58.47
5053;BME280;2545;50.892;5.740;2024-02-23T12:12:45;56351.31;;;-142.21;59.32
5053;BME280;2545;50.892;5.740;2024-02-23T12:15:11;56380.75;;;-142.21;61.13
5053;BME280;2545;50.892;5.740;2024-02-23T12:17:37;56396.44;;;-142.21;61.91
5053;BME280;2545;50.892;5.740;2024-02-23T12:20:03;56351.31;;;-142.21;61.68
5053;BME280;2545;50.892;5.740;2024-02-23T12:22:31;56382.69;;;-142.21;60.66
5053;BME280;2545;50.892;5.740;2024-02-23T12:24:58;56345.44;;;-142.21;59.95
5053;BME280;2545;50.892;5.740;2024-02-23T12:27:24;56390.53;;;-142.21;60.02
5053;BME280;2545;50.892;5.740;2024-02-23T12:30:13;56382.69;;;-142.21;59.99
5053;BME280;2545;50.892;5.740;2024-02-23T12:32:39;56382.69;;;-142.21;58.49
5053;BME280;2545;50.892;5.740;2024-02-23T12:35:05;56390.53;;;-142.21;59.48
5053;BME280;2545;50.892;5.740;2024-02-23T12:37:34;56367.00;;;-142.21;61.34
5053;BME280;2545;50.892;5.740;2024-02-23T12:40:00;56376.81;;;-142.21;60.89
5053;BME280;2545;50.892;5.740;2024-02-23T12:42:26;56402.31;;;-142.21;61.43
5053;BME280;2545;50.892;5.740;2024-02-23T12:44:51;56410.16;;;-142.21;61.71
5053;BME280;2545;50.892;5.740;2024-02-23T12:47:17;56386.63;;;-142.21;61.52
5053;BME280;2545;50.892;5.740;2024-02-23T12:49:45;56398.38;;;-142.21;62.35
5053;BME280;2545;50.892;5.740;2024-02-23T12:52:12;56398.38;;;-142.21;62.15
5053;BME280;2545;50.892;5.740;2024-02-23T12:54:37;56367.00;;;-142.21;62.15
5053;BME280;2545;50.892;5.740;2024-02-23T12:57:03;56410.16;;;-142.21;62.88